sensor_id;sensor_type;location;lat;lon;timestamp;P1;durP1;ratioP1;P2;durP2;ratioP2
9823;SDS011;4951;50.778;7.196;2024-03-23T00:56:01;17.43;;;12.07;;
9823;SDS011;4951;50.778;7.196;2024-03-23T00:58:28;25.93;;;14.93;;
9823;SDS011;4951;50.778;7.196;2024-03-23T01:00:57;21.77;;;13.43;;
9823;SDS011;4951;50.778;7.196;2024-03-23T01:03:23;26.47;;;14.93;;
9823;SDS011;4951;50.778;7.196;2024-03-23T01:05:50;23.17;;;13.87;;
9823;SDS011;4951;50.778;7.196;2024-03-23T01:08:18;24.20;;;13.97;;
9823;SDS011;4951;50.778;7.196;2024-03-23T01:10:53;24.23;;;14.20;;
9823;SDS011;4951;50.778;7.196;2024-03-23T01:13:20;25.37;;;15.33;;
9823;SDS011;4951;50.778;7.196;2024-03-23T01:15:48;22.57;;;13.93;;
9823;SDS011;4951;50.778;7.196;2024-03-23T01:18:15;27.83;;;14.80;;
9823;SDS011;4951;50.778;7.196;2024-03-23T01:20:43;22.60;;;13.37;;
9823;SDS011;4951;50.778;7.196;2024-03-23T01:23:09;26.30;;;14.00;;
9823;SDS011;4951;50.778;7.196;2024-03-23T01:25:37;25.93;;;14.33;;
9823;SDS011;4951;50.778;7.196;2024-03-23T01:28:05;26.43;;;14.20;;
9823;SDS011;4951;50.778;7.196;2024-03-23T01:30:33;20.37;;;13.17;;
9823;SDS011;4951;50.778;7.196;2024-03-23T01:33:00;23.70;;;13.23;;
9823;SDS011;4951;50.778;7.196;2024-03-23T01:35:29;25.10;;;14.03;;
9823;SDS011;4951;50.778;7.196;2024-03-23T01:37:55;27.87;;;14.87;;
9823;SDS011;4951;50.778;7.196;2024-03-23T01:40:22;30.50;;;14.70;;
9823;SDS011;4951;50.778;7.196;2024-03-23T01:42:55;26.40;;;14.47;;
9823;SDS011;4951;50.778;7.196;2024-03-23T01:45:22;24.07;;;13.97;;
9823;SDS011;4951;50.778;7.196;2024-03-23T01:47:49;31.57;;;17.30;;
9823;SDS011;4951;50.778;7.196;2024-03-23T01:50:18;29.97;;;15.00;;
9823;SDS011;4951;50.778;7.196;2024-03-23T01:52:46;24.67;;;12.33;;
9823;SDS011;4951;50.778;7.196;2024-03-23T01:55:13;17.10;;;10.97;;
9823;SDS011;4951;50.778;7.196;2024-03-23T01:57:39;19.23;;;11.33;;
9823;SDS011;4951;50.778;7.196;2024-03-23T02:00:07;22.73;;;12.80;;
9823;SDS011;4951;50.778;7.196;2024-03-23T02:02:40;19.03;;;10.77;;
9823;SDS011;4951;50.778;7.196;2024-03-23T02:05:09;16.10;;;9.93;;
9823;SDS011;4951;50.778;7.196;2024-03-23T02:07:35;16.07;;;9.73;;
9823;SDS011;4951;50.778;7.196;2024-03-23T02:10:05;18.17;;;10.43;;
9823;SDS011;4951;50.778;7.196;2024-03-23T02:12:32;19.53;;;10.60;;
9823;SDS011;4951;50.778;7.196;2024-03-23T02:14:59;24.57;;;12.93;;
9823;SDS011;4951;50.778;7.196;2024-03-23T02:17:25;17.53;;;11.53;;
9823;SDS011;4951;50.778;7.196;2024-03-23T02:19:52;17.00;;;10.67;;
9823;SDS011;4951;50.778;7.196;2024-03-23T02:22:18;17.10;;;10.03;;
9823;SDS011;4951;50.778;7.196;2024-03-23T02:24:47;17.97;;;10.93;;
9823;SDS011;4951;50.778;7.196;2024-03-23T02:27:13;15.50;;;7.60;;
9823;SDS011;4951;50.778;7.196;2024-03-23T02:29:41;11.63;;;6.80;;
9823;SDS011;4951;50.778;7.196;2024-03-23T02:32:07;12.40;;;6.17;;
9823;SDS011;4951;50.778;7.196;2024-03-23T02:34:35;14.07;;;7.13;;
9823;SDS011;4951;50.778;7.196;2024-03-23T02:37:01;9.03;;;5.80;;
9823;SDS011;4951;50.778;7.196;2024-03-23T02:39:36;9.93;;;4.53;;
9823;SDS011;4951;50.778;7.196;2024-03-23T02:42:04;8.33;;;4.27;;
9823;SDS011;4951;50.778;7.196;2024-03-23T02:44:31;8.30;;;5.10;;
9823;SDS011;4951;50.778;7.196;2024-03-23T02:46:58;11.13;;;4.83;;
9823;SDS011;4951;50.778;7.196;2024-03-23T02:49:25;9.47;;;4.90;;
9823;SDS011;4951;50.778;7.196;2024-03-23T02:51:52;8.87;;;5.20;;
9823;SDS011;4951;50.778;7.196;2024-03-23T02:54:19;9.33;;;5.10;;
9823;SDS011;4951;50.778;7.196;2024-03-23T02:56:45;10.20;;;4.23;;
9823;SDS011;4951;50.778;7.196;2024-03-23T02:59:14;10.27;;;4.70;;
9823;SDS011;4951;50.778;7.196;2024-03-23T03:01:40;6.17;;;3.90;;
9823;SDS011;4951;50.778;7.196;2024-03-23T03:04:08;6.97;;;3.73;;
9823;SDS011;4951;50.778;7.196;2024-03-23T03:06:34;7.97;;;3.97;;
9823;SDS011;4951;50.778;7.196;2024-03-23T03:09:01;8.63;;;3.90;;
9823;SDS011;4951;50.778;7.196;2024-03-23T03:11:27;8.40;;;3.63;;
9823;SDS011;4951;50.778;7.196;2024-03-23T03:13:55;9.17;;;4.33;;
9823;SDS011;4951;50.778;7.196;2024-03-23T03:16:22;10.23;;;3.77;;
9823;SDS011;4951;50.778;7.196;2024-03-23T03:18:50;10.77;;;3.67;;
9823;SDS011;4951;50.778;7.196;2024-03-23T03:21:18;10.73;;;4.43;;
9823;SDS011;4951;50.778;7.196;2024-03-23T03:23:45;7.80;;;4.20;;
9823;SDS011;4951;50.778;7.196;2024-03-23T03:26:11;10.70;;;5.40;;
9823;SDS011;4951;50.778;7.196;2024-03-23T03:28:38;11.30;;;4.77;;
9823;SDS011;4951;50.778;7.196;2024-03-23T03:31:05;7.40;;;4.60;;
9823;SDS011;4951;50.778;7.196;2024-03-23T03:33:34;7.37;;;4.43;;
9823;SDS011;4951;50.778;7.196;2024-03-23T03:36:00;10.70;;;4.77;;
9823;SDS011;4951;50.778;7.196;2024-03-23T03:38:27;9.03;;;3.60;;
9823;SDS011;4951;50.778;7.196;2024-03-23T03:40:53;14.53;;;3.80;;
9823;SDS011;4951;50.778;7.196;2024-03-23T03:43:20;10.03;;;3.90;;
9823;SDS011;4951;50.778;7.196;2024-03-23T03:45:51;9.57;;;3.70;;
9823;SDS011;4951;50.778;7.196;2024-03-23T03:48:19;10.33;;;4.13;;
9823;SDS011;4951;50.778;7.196;2024-03-23T03:50:46;9.27;;;4.13;;
9823;SDS011;4951;50.778;7.196;2024-03-23T03:53:13;13.77;;;4.03;;
9823;SDS011;4951;50.778;7.196;2024-03-23T03:55:40;9.70;;;4.07;;
9823;SDS011;4951;50.778;7.196;2024-03-23T03:58:07;9.70;;;4.13;;
9823;SDS011;4951;50.778;7.196;2024-03-23T04:00:34;9.73;;;3.67;;
9823;SDS011;4951;50.778;7.196;2024-03-23T04:03:01;11.63;;;4.37;;
9823;SDS011;4951;50.778;7.196;2024-03-23T04:05:27;7.23;;;3.50;;
9823;SDS011;4951;50.778;7.196;2024-03-23T04:07:57;10.93;;;4.07;;
9823;SDS011;4951;50.778;7.196;2024-03-23T04:10:23;11.37;;;4.13;;
9823;SDS011;4951;50.778;7.196;2024-03-23T04:12:50;8.77;;;3.90;;
9823;SDS011;4951;50.778;7.196;2024-03-23T04:15:16;11.13;;;4.20;;
9823;SDS011;4951;50.778;7.196;2024-03-23T04:17:46;9.10;;;3.87;;
9823;SDS011;4951;50.778;7.196;2024-03-23T04:20:13;11.20;;;4.50;;
9823;SDS011;4951;50.778;7.196;2024-03-23T04:22:42;9.83;;;4.10;;
9823;SDS011;4951;50.778;7.196;2024-03-23T04:25:09;12.83;;;4.87;;
9823;SDS011;4951;50.778;7.196;2024-03-23T04:27:37;7.80;;;3.70;;
9823;SDS011;4951;50.778;7.196;2024-03-23T04:30:03;13.23;;;4.77;;
9823;SDS011;4951;50.778;7.196;2024-03-23T04:32:35;14.27;;;5.43;;
9823;SDS011;4951;50.778;7.196;2024-03-23T04:35:01;12.27;;;4.63;;
9823;SDS011;4951;50.778;7.196;2024-03-23T04:37:31;17.40;;;5.17;;
9823;SDS011;4951;50.778;7.196;2024-03-23T04:39:59;12.57;;;4.87;;
9823;SDS011;4951;50.778;7.196;2024-03-23T04:42:29;12.97;;;4.60;;
9823;SDS011;4951;50.778;7.196;2024-03-23T04:44:57;10.30;;;4.27;;
9823;SDS011;4951;50.778;7.196;2024-03-23T04:47:24;14.97;;;4.67;;
9823;SDS011;4951;50.778;7.196;2024-03-23T04:49:52;6.40;;;3.70;;
9823;SDS011;4951;50.778;7.196;2024-03-23T04:52:19;11.83;;;4.13;;
9823;SDS011;4951;50.778;7.196;2024-03-23T04:54:47;15.97;;;4.90;;
9823;SDS011;4951;50.778;7.196;2024-03-23T04:57:14;13.10;;;5.03;;
9823;SDS011;4951;50.778;7.196;2024-03-23T04:59:47;12.37;;;4.83;;
9823;SDS011;4951;50.778;7.196;2024-03-23T05:02:15;11.97;;;4.27;;
9823;SDS011;4951;50.778;7.196;2024-03-23T05:04:44;9.93;;;3.73;;
9823;SDS011;4951;50.778;7.196;2024-03-23T05:07:11;11.93;;;4.43;;
9823;SDS011;4951;50.778;7.196;2024-03-23T05:09:37;11.33;;;4.30;;
9823;SDS011;4951;50.778;7.196;2024-03-23T05:12:05;12.47;;;4.20;;
9823;SDS011;4951;50.778;7.196;2024-03-23T05:14:31;13.00;;;3.67;;
9823;SDS011;4951;50.778;7.196;2024-03-23T05:17:03;10.93;;;3.87;;
9823;SDS011;4951;50.778;7.196;2024-03-23T05:19:29;17.33;;;4.43;;
9823;SDS011;4951;50.778;7.196;2024-03-23T05:21:59;12.13;;;4.53;;
9823;SDS011;4951;50.778;7.196;2024-03-23T05:24:25;15.13;;;4.67;;
9823;SDS011;4951;50.778;7.196;2024-03-23T05:26:52;15.27;;;4.53;;
9823;SDS011;4951;50.778;7.196;2024-03-23T05:29:18;9.87;;;4.20;;
9823;SDS011;4951;50.778;7.196;2024-03-23T05:31:49;11.77;;;4.30;;
9823;SDS011;4951;50.778;7.196;2024-03-23T05:34:18;16.03;;;4.23;;
9823;SDS011;4951;50.778;7.196;2024-03-23T05:36:45;11.67;;;3.87;;
9823;SDS011;4951;50.778;7.196;2024-03-23T05:39:11;12.93;;;4.20;;
9823;SDS011;4951;50.778;7.196;2024-03-23T05:41:41;16.10;;;4.20;;
9823;SDS011;4951;50.778;7.196;2024-03-23T05:44:07;13.60;;;3.90;;
9823;SDS011;4951;50.778;7.196;2024-03-23T05:46:36;16.30;;;4.07;;
9823;SDS011;4951;50.778;7.196;2024-03-23T05:49:02;15.13;;;3.63;;
9823;SDS011;4951;50.778;7.196;2024-03-23T05:51:30;14.63;;;4.00;;
9823;SDS011;4951;50.778;7.196;2024-03-23T05:53:57;11.33;;;3.60;;
9823;SDS011;4951;50.778;7.196;2024-03-23T05:56:23;14.43;;;4.23;;
9823;SDS011;4951;50.778;7.196;2024-03-23T05:58:51;13.33;;;3.40;;
9823;SDS011;4951;50.778;7.196;2024-03-23T06:01:18;8.37;;;3.00;;
9823;SDS011;4951;50.778;7.196;2024-03-23T06:03:44;10.63;;;3.10;;
9823;SDS011;4951;50.778;7.196;2024-03-23T06:06:11;13.00;;;3.40;;
9823;SDS011;4951;50.778;7.196;2024-03-23T06:08:39;12.87;;;3.47;;
9823;SDS011;4951;50.778;7.196;2024-03-23T06:11:06;13.00;;;3.10;;
9823;SDS011;4951;50.778;7.196;2024-03-23T06:13:33;12.43;;;3.07;;
9823;SDS011;4951;50.778;7.196;2024-03-23T06:16:00;12.87;;;3.43;;
9823;SDS011;4951;50.778;7.196;2024-03-23T06:18:27;11.13;;;3.40;;
9823;SDS011;4951;50.778;7.196;2024-03-23T06:20:54;11.27;;;3.43;;
9823;SDS011;4951;50.778;7.196;2024-03-23T06:23:20;11.70;;;3.03;;
9823;SDS011;4951;50.778;7.196;2024-03-23T06:25:48;12.57;;;3.57;;
9823;SDS011;4951;50.778;7.196;2024-03-23T06:28:15;16.13;;;3.60;;
9823;SDS011;4951;50.778;7.196;2024-03-23T06:30:43;9.97;;;3.23;;
9823;SDS011;4951;50.778;7.196;2024-03-23T06:33:09;17.03;;;3.30;;
9823;SDS011;4951;50.778;7.196;2024-03-23T06:35:37;13.53;;;3.80;;
9823;SDS011;4951;50.778;7.196;2024-03-23T06:38:03;11.23;;;4.00;;
9823;SDS011;4951;50.778;7.196;2024-03-23T06:40:31;11.00;;;3.40;;
9823;SDS011;4951;50.778;7.196;2024-03-23T06:42:58;11.57;;;3.00;;
9823;SDS011;4951;50.778;7.196;2024-03-23T06:45:25;11.47;;;3.47;;
9823;SDS011;4951;50.778;7.196;2024-03-23T06:47:52;10.23;;;3.27;;
9823;SDS011;4951;50.778;7.196;2024-03-23T06:50:20;16.00;;;3.80;;
9823;SDS011;4951;50.778;7.196;2024-03-23T06:52:49;13.57;;;3.70;;
9823;SDS011;4951;50.778;7.196;2024-03-23T06:55:16;14.23;;;3.27;;
9823;SDS011;4951;50.778;7.196;2024-03-23T06:57:42;12.37;;;3.50;;
9823;SDS011;4951;50.778;7.196;2024-03-23T07:00:12;11.60;;;3.70;;
9823;SDS011;4951;50.778;7.196;2024-03-23T07:02:40;13.53;;;4.20;;
9823;SDS011;4951;50.778;7.196;2024-03-23T07:05:09;11.50;;;3.67;;
9823;SDS011;4951;50.778;7.196;2024-03-23T07:07:35;16.57;;;4.17;;
9823;SDS011;4951;50.778;7.196;2024-03-23T07:10:04;12.37;;;3.90;;
9823;SDS011;4951;50.778;7.196;2024-03-23T07:12:31;13.97;;;4.03;;
9823;SDS011;4951;50.778;7.196;2024-03-23T07:14:58;13.80;;;3.90;;
9823;SDS011;4951;50.778;7.196;2024-03-23T07:17:26;7.10;;;3.20;;
9823;SDS011;4951;50.778;7.196;2024-03-23T07:19:53;13.10;;;3.70;;
9823;SDS011;4951;50.778;7.196;2024-03-23T07:22:19;12.20;;;4.13;;
9823;SDS011;4951;50.778;7.196;2024-03-23T07:24:47;12.67;;;4.00;;
9823;SDS011;4951;50.778;7.196;2024-03-23T07:27:14;9.07;;;3.63;;
9823;SDS011;4951;50.778;7.196;2024-03-23T07:29:41;12.20;;;4.30;;
9823;SDS011;4951;50.778;7.196;2024-03-23T07:32:07;11.87;;;3.87;;
9823;SDS011;4951;50.778;7.196;2024-03-23T07:34:38;11.70;;;4.00;;
9823;SDS011;4951;50.778;7.196;2024-03-23T07:37:10;10.47;;;4.33;;
9823;SDS011;4951;50.778;7.196;2024-03-23T07:39:37;14.27;;;4.80;;
9823;SDS011;4951;50.778;7.196;2024-03-23T07:42:03;13.27;;;5.20;;
9823;SDS011;4951;50.778;7.196;2024-03-23T07:44:30;19.50;;;5.57;;
9823;SDS011;4951;50.778;7.196;2024-03-23T07:46:56;14.57;;;4.93;;
9823;SDS011;4951;50.778;7.196;2024-03-23T07:49:24;13.27;;;4.57;;
9823;SDS011;4951;50.778;7.196;2024-03-23T07:51:52;13.10;;;4.73;;
9823;SDS011;4951;50.778;7.196;2024-03-23T07:54:20;14.10;;;4.93;;
9823;SDS011;4951;50.778;7.196;2024-03-23T07:56:46;13.70;;;5.50;;
9823;SDS011;4951;50.778;7.196;2024-03-23T07:59:14;10.67;;;5.33;;
9823;SDS011;4951;50.778;7.196;2024-03-23T08:01:40;12.40;;;5.10;;
9823;SDS011;4951;50.778;7.196;2024-03-23T08:04:07;15.13;;;6.07;;
9823;SDS011;4951;50.778;7.196;2024-03-23T08:06:34;14.47;;;6.03;;
9823;SDS011;4951;50.778;7.196;2024-03-23T08:09:02;12.77;;;5.83;;
9823;SDS011;4951;50.778;7.196;2024-03-23T08:11:30;13.63;;;6.30;;
9823;SDS011;4951;50.778;7.196;2024-03-23T08:13:58;14.67;;;5.33;;
9823;SDS011;4951;50.778;7.196;2024-03-23T08:16:26;17.07;;;6.13;;
9823;SDS011;4951;50.778;7.196;2024-03-23T08:18:53;14.07;;;6.00;;
9823;SDS011;4951;50.778;7.196;2024-03-23T08:21:20;15.13;;;6.97;;
9823;SDS011;4951;50.778;7.196;2024-03-23T08:23:47;11.60;;;6.17;;
9823;SDS011;4951;50.778;7.196;2024-03-23T08:26:17;14.17;;;5.83;;
9823;SDS011;4951;50.778;7.196;2024-03-23T08:28:43;10.13;;;5.13;;
9823;SDS011;4951;50.778;7.196;2024-03-23T08:31:11;10.27;;;5.17;;
9823;SDS011;4951;50.778;7.196;2024-03-23T08:33:38;9.27;;;3.90;;
9823;SDS011;4951;50.778;7.196;2024-03-23T08:36:06;6.43;;;3.30;;
9823;SDS011;4951;50.778;7.196;2024-03-23T08:38:33;7.00;;;2.87;;
9823;SDS011;4951;50.778;7.196;2024-03-23T08:41:02;7.60;;;2.97;;
9823;SDS011;4951;50.778;7.196;2024-03-23T08:43:31;7.70;;;2.80;;
9823;SDS011;4951;50.778;7.196;2024-03-23T08:46:03;6.47;;;2.20;;
9823;SDS011;4951;50.778;7.196;2024-03-23T08:48:30;6.33;;;2.83;;
9823;SDS011;4951;50.778;7.196;2024-03-23T08:51:00;7.30;;;3.03;;
9823;SDS011;4951;50.778;7.196;2024-03-23T08:53:27;6.23;;;2.60;;
9823;SDS011;4951;50.778;7.196;2024-03-23T08:55:54;7.10;;;2.50;;
9823;SDS011;4951;50.778;7.196;2024-03-23T08:58:21;9.30;;;2.87;;
9823;SDS011;4951;50.778;7.196;2024-03-23T09:00:50;6.40;;;2.80;;
9823;SDS011;4951;50.778;7.196;2024-03-23T09:03:17;4.30;;;2.80;;
9823;SDS011;4951;50.778;7.196;2024-03-23T09:05:45;7.53;;;3.60;;
9823;SDS011;4951;50.778;7.196;2024-03-23T09:08:11;6.60;;;3.90;;
9823;SDS011;4951;50.778;7.196;2024-03-23T09:10:38;7.47;;;4.23;;
9823;SDS011;4951;50.778;7.196;2024-03-23T09:13:08;7.17;;;3.70;;
9823;SDS011;4951;50.778;7.196;2024-03-23T09:15:37;7.83;;;3.90;;
9823;SDS011;4951;50.778;7.196;2024-03-23T09:18:12;7.07;;;4.53;;
9823;SDS011;4951;50.778;7.196;2024-03-23T09:20:39;10.20;;;4.63;;
9823;SDS011;4951;50.778;7.196;2024-03-23T09:23:06;8.23;;;4.30;;
9823;SDS011;4951;50.778;7.196;2024-03-23T09:25:35;11.20;;;5.20;;
9823;SDS011;4951;50.778;7.196;2024-03-23T09:28:02;13.80;;;5.67;;
9823;SDS011;4951;50.778;7.196;2024-03-23T09:30:31;10.87;;;5.83;;
9823;SDS011;4951;50.778;7.196;2024-03-23T09:33:00;12.27;;;5.50;;
9823;SDS011;4951;50.778;7.196;2024-03-23T09:35:31;14.77;;;6.67;;
9823;SDS011;4951;50.778;7.196;2024-03-23T09:37:57;10.97;;;4.83;;
9823;SDS011;4951;50.778;7.196;2024-03-23T09:40:24;15.57;;;5.60;;
9823;SDS011;4951;50.778;7.196;2024-03-23T09:42:51;11.60;;;4.93;;
9823;SDS011;4951;50.778;7.196;2024-03-23T09:45:20;11.67;;;5.10;;
9823;SDS011;4951;50.778;7.196;2024-03-23T09:47:47;13.47;;;4.00;;
9823;SDS011;4951;50.778;7.196;2024-03-23T09:50:16;10.13;;;3.83;;
9823;SDS011;4951;50.778;7.196;2024-03-23T09:52:44;13.97;;;4.10;;
9823;SDS011;4951;50.778;7.196;2024-03-23T09:55:13;7.37;;;3.10;;
9823;SDS011;4951;50.778;7.196;2024-03-23T09:57:39;12.17;;;3.23;;
9823;SDS011;4951;50.778;7.196;2024-03-23T10:00:07;10.93;;;3.13;;
9823;SDS011;4951;50.778;7.196;2024-03-23T10:02:34;11.57;;;3.30;;
9823;SDS011;4951;50.778;7.196;2024-03-23T10:05:02;9.20;;;2.83;;
9823;SDS011;4951;50.778;7.196;2024-03-23T10:07:29;8.13;;;2.90;;
9823;SDS011;4951;50.778;7.196;2024-03-23T10:09:58;5.67;;;2.67;;
9823;SDS011;4951;50.778;7.196;2024-03-23T10:12:24;7.30;;;2.87;;
9823;SDS011;4951;50.778;7.196;2024-03-23T10:14:51;9.23;;;2.90;;
9823;SDS011;4951;50.778;7.196;2024-03-23T10:17:17;7.10;;;2.73;;
9823;SDS011;4951;50.778;7.196;2024-03-23T10:19:45;8.87;;;2.77;;
9823;SDS011;4951;50.778;7.196;2024-03-23T10:22:13;9.63;;;2.93;;
9823;SDS011;4951;50.778;7.196;2024-03-23T10:24:41;9.73;;;3.47;;
9823;SDS011;4951;50.778;7.196;2024-03-23T10:27:10;9.67;;;2.80;;
9823;SDS011;4951;50.778;7.196;2024-03-23T10:29:41;6.60;;;2.67;;
9823;SDS011;4951;50.778;7.196;2024-03-23T10:32:07;7.77;;;3.60;;
9823;SDS011;4951;50.778;7.196;2024-03-23T10:34:35;6.50;;;3.30;;
9823;SDS011;4951;50.778;7.196;2024-03-23T10:37:02;13.37;;;2.60;;
9823;SDS011;4951;50.778;7.196;2024-03-23T10:39:30;6.50;;;2.50;;
9823;SDS011;4951;50.778;7.196;2024-03-23T10:42:00;4.63;;;2.20;;
9823;SDS011;4951;50.778;7.196;2024-03-23T10:44:33;4.77;;;2.07;;
9823;SDS011;4951;50.778;7.196;2024-03-23T10:47:00;5.80;;;1.93;;
9823;SDS011;4951;50.778;7.196;2024-03-23T10:49:31;8.13;;;2.20;;
9823;SDS011;4951;50.778;7.196;2024-03-23T10:51:58;6.80;;;2.07;;
9823;SDS011;4951;50.778;7.196;2024-03-23T10:54:27;5.70;;;1.70;;
9823;SDS011;4951;50.778;7.196;2024-03-23T10:56:57;4.23;;;1.83;;
9823;SDS011;4951;50.778;7.196;2024-03-23T10:59:30;3.03;;;1.50;;
9823;SDS011;4951;50.778;7.196;2024-03-23T11:02:01;3.43;;;1.30;;
9823;SDS011;4951;50.778;7.196;2024-03-23T11:04:29;2.43;;;1.20;;
9823;SDS011;4951;50.778;7.196;2024-03-23T11:06:57;3.20;;;1.10;;
9823;SDS011;4951;50.778;7.196;2024-03-23T11:09:40;2.83;;;1.10;;
9823;SDS011;4951;50.778;7.196;2024-03-23T11:12:29;1.73;;;1.20;;
9823;SDS011;4951;50.778;7.196;2024-03-23T11:15:03;3.40;;;1.50;;
9823;SDS011;4951;50.778;7.196;2024-03-23T11:17:30;3.23;;;1.30;;
9823;SDS011;4951;50.778;7.196;2024-03-23T11:19:58;2.50;;;1.83;;
9823;SDS011;4951;50.778;7.196;2024-03-23T11:22:43;3.47;;;1.60;;
9823;SDS011;4951;50.778;7.196;2024-03-23T11:25:15;5.07;;;1.80;;
9823;SDS011;4951;50.778;7.196;2024-03-23T11:27:43;3.57;;;1.50;;
9823;SDS011;4951;50.778;7.196;2024-03-23T11:30:16;4.87;;;1.73;;
9823;SDS011;4951;50.778;7.196;2024-03-23T11:32:44;7.87;;;2.57;;
9823;SDS011;4951;50.778;7.196;2024-03-23T11:35:25;4.83;;;2.37;;
9823;SDS011;4951;50.778;7.196;2024-03-23T11:38:02;6.30;;;2.93;;
9823;SDS011;4951;50.778;7.196;2024-03-23T11:40:30;5.27;;;2.50;;
9823;SDS011;4951;50.778;7.196;2024-03-23T11:42:57;6.97;;;2.97;;
9823;SDS011;4951;50.778;7.196;2024-03-23T11:45:27;7.20;;;2.43;;
9823;SDS011;4951;50.778;7.196;2024-03-23T11:48:06;5.83;;;2.10;;
9823;SDS011;4951;50.778;7.196;2024-03-23T11:50:36;5.77;;;2.37;;
9823;SDS011;4951;50.778;7.196;2024-03-23T11:53:06;5.57;;;1.90;;
9823;SDS011;4951;50.778;7.196;2024-03-23T11:55:44;5.03;;;2.40;;
9823;SDS011;4951;50.778;7.196;2024-03-23T11:58:12;4.77;;;1.93;;
9823;SDS011;4951;50.778;7.196;2024-03-23T12:00:40;5.00;;;2.13;;
9823;SDS011;4951;50.778;7.196;2024-03-23T12:03:07;7.50;;;2.30;;
9823;SDS011;4951;50.778;7.196;2024-03-23T12:05:37;3.87;;;1.90;;
9823;SDS011;4951;50.778;7.196;2024-03-23T12:08:16;5.53;;;2.50;;
9823;SDS011;4951;50.778;7.196;2024-03-23T12:10:46;4.97;;;2.30;;
9823;SDS011;4951;50.778;7.196;2024-03-23T12:13:14;5.57;;;2.23;;
9823;SDS011;4951;50.778;7.196;2024-03-23T12:15:45;9.87;;;3.50;;
9823;SDS011;4951;50.778;7.196;2024-03-23T12:18:12;7.27;;;3.60;;
9823;SDS011;4951;50.778;7.196;2024-03-23T12:20:39;7.23;;;3.43;;
9823;SDS011;4951;50.778;7.196;2024-03-23T12:23:06;8.93;;;3.70;;
9823;SDS011;4951;50.778;7.196;2024-03-23T12:25:35;5.37;;;2.87;;
9823;SDS011;4951;50.778;7.196;2024-03-23T12:28:02;5.80;;;2.90;;
9823;SDS011;4951;50.778;7.196;2024-03-23T12:30:31;6.67;;;2.60;;
9823;SDS011;4951;50.778;7.196;2024-03-23T12:33:00;5.47;;;3.20;;
9823;SDS011;4951;50.778;7.196;2024-03-23T12:35:28;7.53;;;3.20;;
9823;SDS011;4951;50.778;7.196;2024-03-23T12:37:54;9.80;;;3.13;;
9823;SDS011;4951;50.778;7.196;2024-03-23T12:40:22;6.50;;;3.33;;
9823;SDS011;4951;50.778;7.196;2024-03-23T12:42:48;5.70;;;2.80;;
9823;SDS011;4951;50.778;7.196;2024-03-23T12:45:15;7.30;;;3.30;;
9823;SDS011;4951;50.778;7.196;2024-03-23T12:47:42;6.07;;;3.30;;
9823;SDS011;4951;50.778;7.196;2024-03-23T12:50:10;6.80;;;2.50;;
9823;SDS011;4951;50.778;7.196;2024-03-23T12:52:37;2.93;;;1.83;;
9823;SDS011;4951;50.778;7.196;2024-03-23T12:55:07;2.80;;;1.50;;
9823;SDS011;4951;50.778;7.196;2024-03-23T12:57:33;2.80;;;1.47;;
9823;SDS011;4951;50.778;7.196;2024-03-23T13:00:01;2.17;;;1.20;;
9823;SDS011;4951;50.778;7.196;2024-03-23T13:02:28;1.63;;;1.30;;
9823;SDS011;4951;50.778;7.196;2024-03-23T13:04:55;2.73;;;1.30;;
9823;SDS011;4951;50.778;7.196;2024-03-23T13:07:23;1.37;;;1.20;;
9823;SDS011;4951;50.778;7.196;2024-03-23T13:09:51;1.50;;;1.20;;
9823;SDS011;4951;50.778;7.196;2024-03-23T13:12:17;3.20;;;1.20;;
9823;SDS011;4951;50.778;7.196;2024-03-23T13:14:45;1.80;;;1.13;;
9823;SDS011;4951;50.778;7.196;2024-03-23T13:17:11;1.30;;;1.20;;
9823;SDS011;4951;50.778;7.196;2024-03-23T13:19:39;1.90;;;1.40;;
9823;SDS011;4951;50.778;7.196;2024-03-23T13:22:06;2.03;;;1.47;;
9823;SDS011;4951;50.778;7.196;2024-03-23T13:24:35;2.20;;;1.33;;
9823;SDS011;4951;50.778;7.196;2024-03-23T13:27:01;3.53;;;1.30;;
9823;SDS011;4951;50.778;7.196;2024-03-23T13:29:32;1.93;;;1.37;;
9823;SDS011;4951;50.778;7.196;2024-03-23T13:31:59;3.50;;;1.67;;
9823;SDS011;4951;50.778;7.196;2024-03-23T13:34:27;2.57;;;1.43;;
9823;SDS011;4951;50.778;7.196;2024-03-23T13:36:54;1.40;;;1.07;;
9823;SDS011;4951;50.778;7.196;2024-03-23T13:39:23;1.53;;;1.23;;
9823;SDS011;4951;50.778;7.196;2024-03-23T13:41:51;2.87;;;1.40;;
9823;SDS011;4951;50.778;7.196;2024-03-23T13:44:18;3.00;;;1.23;;
9823;SDS011;4951;50.778;7.196;2024-03-23T13:46:44;2.23;;;1.23;;
9823;SDS011;4951;50.778;7.196;2024-03-23T13:49:25;2.67;;;1.40;;
9823;SDS011;4951;50.778;7.196;2024-03-23T13:51:52;4.53;;;1.70;;
9823;SDS011;4951;50.778;7.196;2024-03-23T13:54:19;2.90;;;1.40;;
9823;SDS011;4951;50.778;7.196;2024-03-23T13:56:47;2.80;;;1.70;;
9823;SDS011;4951;50.778;7.196;2024-03-23T13:59:16;5.40;;;2.23;;
9823;SDS011;4951;50.778;7.196;2024-03-23T14:01:42;2.83;;;1.70;;
9823;SDS011;4951;50.778;7.196;2024-03-23T14:04:10;3.63;;;1.80;;
9823;SDS011;4951;50.778;7.196;2024-03-23T14:06:37;3.30;;;1.67;;
9823;SDS011;4951;50.778;7.196;2024-03-23T14:09:04;3.33;;;1.80;;
9823;SDS011;4951;50.778;7.196;2024-03-23T14:11:30;4.87;;;1.90;;
9823;SDS011;4951;50.778;7.196;2024-03-23T14:13:57;3.70;;;1.77;;
9823;SDS011;4951;50.778;7.196;2024-03-23T14:16:24;2.87;;;1.63;;
9823;SDS011;4951;50.778;7.196;2024-03-23T14:18:51;3.03;;;1.90;;
9823;SDS011;4951;50.778;7.196;2024-03-23T14:21:18;3.17;;;1.73;;
9823;SDS011;4951;50.778;7.196;2024-03-23T14:23:45;5.33;;;2.00;;
9823;SDS011;4951;50.778;7.196;2024-03-23T14:26:11;4.07;;;1.93;;
9823;SDS011;4951;50.778;7.196;2024-03-23T14:28:38;5.80;;;2.20;;
9823;SDS011;4951;50.778;7.196;2024-03-23T14:31:04;4.30;;;2.00;;
9823;SDS011;4951;50.778;7.196;2024-03-23T14:33:37;3.63;;;1.63;;
9823;SDS011;4951;50.778;7.196;2024-03-23T14:36:03;2.23;;;1.50;;
9823;SDS011;4951;50.778;7.196;2024-03-23T14:38:31;3.60;;;1.40;;
9823;SDS011;4951;50.778;7.196;2024-03-23T14:40:57;2.37;;;1.60;;
9823;SDS011;4951;50.778;7.196;2024-03-23T14:43:25;2.07;;;1.50;;
9823;SDS011;4951;50.778;7.196;2024-03-23T14:46:07;4.30;;;1.90;;
9823;SDS011;4951;50.778;7.196;2024-03-23T14:48:36;3.23;;;1.60;;
9823;SDS011;4951;50.778;7.196;2024-03-23T14:51:02;4.03;;;1.70;;
9823;SDS011;4951;50.778;7.196;2024-03-23T14:53:31;4.90;;;1.83;;
9823;SDS011;4951;50.778;7.196;2024-03-23T14:55:57;5.13;;;1.93;;
9823;SDS011;4951;50.778;7.196;2024-03-23T14:58:25;3.77;;;1.50;;
9823;SDS011;4951;50.778;7.196;2024-03-23T15:00:51;2.87;;;1.53;;
9823;SDS011;4951;50.778;7.196;2024-03-23T15:03:18;2.73;;;1.40;;
9823;SDS011;4951;50.778;7.196;2024-03-23T15:05:53;1.97;;;1.30;;
9823;SDS011;4951;50.778;7.196;2024-03-23T15:08:20;3.97;;;1.53;;
9823;SDS011;4951;50.778;7.196;2024-03-23T15:10:47;4.23;;;1.50;;
9823;SDS011;4951;50.778;7.196;2024-03-23T15:13:14;2.20;;;1.53;;
9823;SDS011;4951;50.778;7.196;2024-03-23T15:15:40;3.40;;;1.70;;
9823;SDS011;4951;50.778;7.196;2024-03-23T15:18:09;2.93;;;1.70;;
9823;SDS011;4951;50.778;7.196;2024-03-23T15:20:36;2.47;;;1.57;;
9823;SDS011;4951;50.778;7.196;2024-03-23T15:23:04;3.50;;;1.50;;
9823;SDS011;4951;50.778;7.196;2024-03-23T15:25:31;2.37;;;1.30;;
9823;SDS011;4951;50.778;7.196;2024-03-23T15:27:58;5.07;;;1.47;;
9823;SDS011;4951;50.778;7.196;2024-03-23T15:30:25;5.33;;;2.40;;
9823;SDS011;4951;50.778;7.196;2024-03-23T15:32:52;3.63;;;1.70;;
9823;SDS011;4951;50.778;7.196;2024-03-23T15:35:18;4.53;;;1.87;;
9823;SDS011;4951;50.778;7.196;2024-03-23T15:37:48;3.23;;;1.57;;
9823;SDS011;4951;50.778;7.196;2024-03-23T15:40:15;2.07;;;1.57;;
9823;SDS011;4951;50.778;7.196;2024-03-23T15:42:43;4.13;;;1.90;;
9823;SDS011;4951;50.778;7.196;2024-03-23T15:45:09;2.80;;;1.90;;
9823;SDS011;4951;50.778;7.196;2024-03-23T15:47:36;3.63;;;1.83;;
9823;SDS011;4951;50.778;7.196;2024-03-23T15:50:03;4.60;;;2.50;;
9823;SDS011;4951;50.778;7.196;2024-03-23T15:52:34;3.50;;;1.90;;
9823;SDS011;4951;50.778;7.196;2024-03-23T15:55:01;3.70;;;2.10;;
9823;SDS011;4951;50.778;7.196;2024-03-23T15:57:32;3.33;;;1.70;;
9823;SDS011;4951;50.778;7.196;2024-03-23T15:59:59;2.73;;;1.43;;
9823;SDS011;4951;50.778;7.196;2024-03-23T16:02:26;3.57;;;2.00;;
9823;SDS011;4951;50.778;7.196;2024-03-23T16:04:53;3.20;;;2.00;;
9823;SDS011;4951;50.778;7.196;2024-03-23T16:07:20;3.17;;;1.63;;